createdAt,value
2023-03-03T00:00:57.135Z,71.38
2023-03-03T00:03:58.880Z,68.47
2023-03-03T00:07:00.058Z,68.97
2023-03-03T00:10:01.262Z,70.40
2023-03-03T00:13:03.108Z,78.88
2023-03-03T00:16:31.383Z,75.25
2023-03-03T00:19:41.383Z,70.15
2023-03-03T00:22:42.742Z,71.10
2023-03-03T00:25:46.493Z,75.47
2023-03-03T00:28:53.041Z,75.55
2023-03-03T00:31:54.504Z,72.93
2023-03-03T00:35:01.791Z,73.85
2023-03-03T00:38:17.350Z,78.72
2023-03-03T00:41:27.165Z,83.15
2023-03-03T00:44:46.063Z,67.97
2023-03-03T00:47:47.818Z,73.43
2023-03-03T00:50:50.791Z,76.47
2023-03-03T00:53:51.760Z,78.75
2023-03-03T00:56:52.826Z,79.20
2023-03-03T00:59:54.556Z,75.80
2023-03-03T01:02:55.398Z,71.50
2023-03-03T01:05:56.809Z,76.80
2023-03-03T01:08:58.458Z,75.43
2023-03-03T01:12:00.376Z,73.10
2023-03-03T01:15:01.563Z,73.80
2023-03-03T01:18:02.898Z,74.65
2023-03-03T01:21:05.697Z,74.28
2023-03-03T01:24:06.659Z,76.38
2023-03-03T01:27:07.575Z,71.97
2023-03-03T01:30:10.093Z,77.55
2023-03-03T01:33:11.709Z,75.75
2023-03-03T01:36:12.979Z,71.95
2023-03-03T01:39:13.869Z,71.95
2023-03-03T01:42:15.951Z,74.57
2023-03-03T01:45:31.714Z,72.35
2023-03-03T01:48:44.875Z,73.47
2023-03-03T01:51:57.134Z,73.88
2023-03-03T01:55:04.716Z,70.97
2023-03-03T01:58:31.252Z,74.43
2023-03-03T02:01:33.778Z,76.63
2023-03-03T02:04:36.147Z,79.90
2023-03-03T02:07:38.596Z,75.60
2023-03-03T02:10:40.973Z,77.43
2023-03-03T02:13:41.957Z,81.07
2023-03-03T02:16:43.330Z,76.53
2023-03-03T02:20:07.472Z,74.80
2023-03-03T02:23:23.434Z,72.70
2023-03-03T02:26:30.128Z,75.53
2023-03-03T02:29:36.007Z,74.18
2023-03-03T02:32:39.392Z,80.30
2023-03-03T02:35:42.414Z,80.60
2023-03-03T02:39:00.137Z,71.22
2023-03-03T02:42:20.423Z,69.43
2023-03-03T02:45:25.473Z,80.35
2023-03-03T02:48:26.691Z,75.57
2023-03-03T02:51:27.837Z,69.32
2023-03-03T02:54:31.336Z,75.25
2023-03-03T02:57:33.397Z,71.90
2023-03-03T03:00:34.610Z,75.30
2023-03-03T03:03:35.955Z,77.88
2023-03-03T03:06:39.087Z,78.15
2023-03-03T03:09:40.414Z,70.10
2023-03-03T03:12:41.727Z,75.85
2023-03-03T03:15:47.088Z,75.05
2023-03-03T03:18:48.438Z,70.97
2023-03-03T03:21:50.199Z,73.20
2023-03-03T03:24:51.966Z,75.65
2023-03-03T03:27:52.638Z,77.25
2023-03-03T03:30:54.720Z,75.88
2023-03-03T03:33:56.845Z,70.55
2023-03-03T03:36:58.573Z,71.22
2023-03-03T03:40:02.045Z,73.38
2023-03-03T03:43:04.343Z,69.32
2023-03-03T03:46:06.028Z,71.00
2023-03-03T03:49:07.975Z,69.68
2023-03-03T03:52:09.217Z,75.35
2023-03-03T03:55:10.806Z,76.43
2023-03-03T03:58:18.891Z,76.72
2023-03-03T04:01:26.590Z,66.60
2023-03-03T04:04:28.347Z,70.35
2023-03-03T04:07:30.186Z,73.93
2023-03-03T04:10:31.632Z,69.95
2023-03-03T04:13:35.392Z,83.32
2023-03-03T04:16:39.900Z,61.53
2023-03-03T04:19:41.068Z,73.85
2023-03-03T04:22:44.006Z,83.93
2023-03-03T04:25:48.142Z,76.18
2023-03-03T04:28:49.709Z,75.85
2023-03-03T04:31:51.311Z,78.90
2023-03-03T04:35:05.773Z,75.47
2023-03-03T04:38:09.354Z,80.00
2023-03-03T04:41:11.521Z,77.55
2023-03-03T04:44:13.850Z,76.80
2023-03-03T04:47:15.120Z,77.55
2023-03-03T04:50:16.739Z,80.63
2023-03-03T04:53:18.004Z,75.68
2023-03-03T04:56:18.902Z,73.78
2023-03-03T04:59:19.798Z,85.88
2023-03-03T05:02:20.781Z,78.43
2023-03-03T05:05:22.601Z,73.53
2023-03-03T05:08:24.078Z,70.00
2023-03-03T05:11:25.510Z,67.97
2023-03-03T05:14:28.114Z,80.05
2023-03-03T05:17:29.242Z,72.65
2023-03-03T05:20:29.966Z,78.55
2023-03-03T05:23:31.557Z,81.97
2023-03-03T05:26:32.551Z,80.35
2023-03-03T05:29:33.670Z,79.82
2023-03-03T05:32:35.079Z,78.20
2023-03-03T05:35:36.479Z,77.50
2023-03-03T05:38:37.741Z,83.50
2023-03-03T05:41:38.989Z,80.15
2023-03-03T05:44:39.970Z,80.00
2023-03-03T05:47:40.956Z,77.22
2023-03-03T05:50:41.880Z,78.82
2023-03-03T05:53:42.986Z,80.70
2023-03-03T05:56:43.875Z,82.00
2023-03-03T05:59:44.762Z,79.47
2023-03-03T06:02:45.963Z,84.18
2023-03-03T06:05:47.257Z,80.30
2023-03-03T06:08:48.080Z,94.47
2023-03-03T06:11:48.862Z,90.32
2023-03-03T06:14:49.994Z,96.35
2023-03-03T06:17:51.483Z,82.97
2023-03-03T06:20:55.094Z,91.55
2023-03-03T06:23:55.899Z,92.93
2023-03-03T06:26:58.751Z,88.68
2023-03-03T06:29:59.787Z,99.80
2023-03-03T06:33:00.633Z,93.10
2023-03-03T06:36:03.560Z,79.05
2023-03-03T06:39:06.343Z,80.53
2023-03-03T06:42:09.691Z,87.55
2023-03-03T06:45:11.590Z,96.40
2023-03-03T06:48:12.788Z,95.53
2023-03-03T06:51:36.017Z,94.75
2023-03-03T06:54:36.970Z,80.63
2023-03-03T06:57:38.377Z,87.60
2023-03-03T07:00:39.147Z,81.60
2023-03-03T07:03:40.037Z,84.70
2023-03-03T07:06:40.880Z,86.38
2023-03-03T07:09:46.216Z,83.25
2023-03-03T07:12:47.410Z,81.68
2023-03-03T07:15:52.361Z,88.32
2023-03-03T07:19:05.464Z,83.90
2023-03-03T07:22:22.673Z,82.28
2023-03-03T07:25:35.700Z,83.72
2023-03-03T07:28:36.298Z,78.68
2023-03-03T07:31:44.623Z,76.97
2023-03-03T07:34:50.894Z,82.97
2023-03-03T07:37:52.321Z,80.97
2023-03-03T07:40:57.530Z,83.38
2023-03-03T07:44:18.051Z,75.15
2023-03-03T07:47:26.421Z,88.28
2023-03-03T07:50:27.194Z,81.68
2023-03-03T07:53:34.949Z,78.38
2023-03-03T07:56:36.984Z,77.75
2023-03-03T07:59:46.040Z,77.95
2023-03-03T08:03:05.420Z,79.60
2023-03-03T08:06:35.525Z,83.22
2023-03-03T08:09:51.238Z,82.03
2023-03-03T08:12:52.349Z,85.65
2023-03-03T08:16:09.099Z,80.10
2023-03-03T08:19:16.438Z,87.93
2023-03-03T08:22:37.795Z,74.18
2023-03-03T08:25:39.865Z,87.43
2023-03-03T08:28:40.684Z,79.10
2023-03-03T08:31:42.294Z,81.70
2023-03-03T08:34:43.221Z,81.13
2023-03-03T08:37:44.396Z,85.80
2023-03-03T08:40:47.221Z,76.88
2023-03-03T08:43:48.496Z,77.32
2023-03-03T08:46:50.086Z,82.13
2023-03-03T08:49:51.061Z,84.38
2023-03-03T08:52:52.404Z,79.63
2023-03-03T08:55:53.701Z,80.68
2023-03-03T08:59:02.067Z,76.15
2023-03-03T09:02:04.025Z,79.60
2023-03-03T09:05:06.368Z,86.30
2023-03-03T09:08:09.683Z,81.35
2023-03-03T09:11:14.178Z,79.28
2023-03-03T09:14:18.964Z,78.07
2023-03-03T09:17:29.360Z,93.70
2023-03-03T09:20:45.099Z,83.60
2023-03-03T09:23:58.063Z,78.43
2023-03-03T09:26:59.862Z,77.65
2023-03-03T09:30:22.977Z,72.03
2023-03-03T09:33:24.190Z,79.18
2023-03-03T09:36:38.693Z,76.95
2023-03-03T09:39:39.701Z,81.93
2023-03-03T09:43:04.313Z,81.15
2023-03-03T09:46:36.792Z,88.25
2023-03-03T09:50:13.600Z,77.43
2023-03-03T09:53:32.026Z,79.40
2023-03-03T09:57:05.676Z,77.43
2023-03-03T10:01:00.711Z,75.45
2023-03-03T10:04:11.585Z,76.88
2023-03-03T10:07:42.364Z,74.57
2023-03-03T10:11:08.099Z,81.85
2023-03-03T10:14:28.944Z,74.68
2023-03-03T10:17:42.885Z,70.43
2023-03-03T10:21:16.765Z,75.63
2023-03-03T10:24:23.258Z,69.65
2023-03-03T10:27:47.437Z,79.07
2023-03-03T10:31:50.200Z,72.25
2023-03-03T10:35:03.330Z,72.90
2023-03-03T10:38:20.151Z,73.53
2023-03-03T10:41:35.757Z,73.45
2023-03-03T10:44:57.925Z,75.90
2023-03-03T10:48:36.083Z,75.82
2023-03-03T10:52:03.258Z,73.18
2023-03-03T10:55:13.076Z,85.65
2023-03-03T10:58:56.070Z,71.20
2023-03-03T11:02:11.923Z,72.25
2023-03-03T11:05:52.227Z,73.43
2023-03-03T11:09:11.143Z,70.25
2023-03-03T11:13:03.580Z,82.18
2023-03-03T11:16:16.572Z,73.70
2023-03-03T11:19:57.726Z,71.22
2023-03-03T11:23:53.522Z,70.90
2023-03-03T11:27:46.758Z,72.45
2023-03-03T11:31:31.700Z,67.60
2023-03-03T11:34:58.245Z,70.28
2023-03-03T11:38:36.042Z,66.25
2023-03-03T11:41:50.867Z,68.35
2023-03-03T11:45:06.526Z,66.68
2023-03-03T11:48:37.513Z,67.85
2023-03-03T11:51:54.143Z,65.90
2023-03-03T11:55:21.318Z,67.33
2023-03-03T11:58:44.721Z,68.50
2023-03-03T12:02:20.834Z,75.65
2023-03-03T12:06:02.875Z,78.13
2023-03-03T12:09:09.598Z,73.30
2023-03-03T12:12:44.581Z,70.75
2023-03-03T12:16:33.846Z,67.88
2023-03-03T12:20:19.483Z,69.32
2023-03-03T12:23:52.611Z,75.50
2023-03-03T12:27:23.170Z,67.30
2023-03-03T12:30:43.948Z,64.50
2023-03-03T12:34:03.232Z,73.32
2023-03-03T12:40:30.514Z,72.68
2023-03-03T12:43:55.989Z,70.68
2023-03-03T12:47:23.180Z,68.68
2023-03-03T12:50:55.932Z,70.20
2023-03-03T12:54:00.134Z,65.60
2023-03-03T12:57:38.655Z,63.92
2023-03-03T13:01:06.477Z,68.43
2023-03-03T13:04:25.568Z,65.38
2023-03-03T13:07:53.602Z,67.88
2023-03-03T13:11:09.997Z,62.30
2023-03-03T13:14:35.861Z,62.30
2023-03-03T13:18:28.920Z,61.72
2023-03-03T13:21:59.888Z,58.22
2023-03-03T13:25:06.654Z,68.82
2023-03-03T13:28:23.518Z,64.75
2023-03-03T13:31:37.640Z,65.50
2023-03-03T13:35:25.860Z,60.03
2023-03-03T13:39:06.279Z,63.03
2023-03-03T13:42:39.639Z,59.28
2023-03-03T13:46:23.460Z,69.30
2023-03-03T13:49:55.469Z,64.38
2023-03-03T13:53:02.511Z,59.83
2023-03-03T13:56:29.880Z,62.60
2023-03-03T14:03:04.250Z,64.75
2023-03-03T14:06:27.363Z,56.50
2023-03-03T14:09:44.180Z,63.90
2023-03-03T14:13:11.038Z,62.15
2023-03-03T14:19:49.282Z,65.55
2023-03-03T14:23:13.169Z,66.47
2023-03-03T14:26:14.742Z,59.70
2023-03-03T14:29:35.941Z,62.10
2023-03-03T14:32:45.326Z,63.65
2023-03-03T14:36:05.268Z,65.55
2023-03-03T14:39:37.384Z,58.95
2023-03-03T14:42:54.742Z,57.58
2023-03-03T14:45:56.675Z,65.40
2023-03-03T14:53:49.185Z,60.83
2023-03-03T14:57:12.298Z,61.00
2023-03-03T15:00:13.716Z,62.10
2023-03-03T15:03:27.172Z,62.72
2023-03-03T15:06:48.704Z,68.90
2023-03-03T15:09:51.615Z,66.82
2023-03-03T15:12:53.004Z,66.32
2023-03-03T15:16:02.324Z,68.68
2023-03-03T15:19:21.653Z,64.50
2023-03-03T15:22:47.600Z,71.80
2023-03-03T15:26:19.769Z,63.93
2023-03-03T15:29:41.927Z,72.53
2023-03-03T15:33:17.578Z,67.80
2023-03-03T15:36:31.500Z,65.22
2023-03-03T15:40:16.887Z,68.90
2023-03-03T15:43:57.506Z,67.78
2023-03-03T15:47:21.468Z,64.50
2023-03-03T15:51:09.623Z,72.30
2023-03-03T15:54:26.481Z,69.13
2023-03-03T15:57:55.378Z,72.53
2023-03-03T16:01:22.705Z,64.88
2023-03-03T16:04:36.230Z,63.63
2023-03-03T16:08:02.163Z,68.10
2023-03-03T16:11:28.445Z,59.28
2023-03-03T16:15:01.332Z,68.53
2023-03-03T16:18:36.745Z,65.50
2023-03-03T16:22:14.803Z,54.85
2023-03-03T16:25:33.771Z,61.17
2023-03-03T16:29:25.520Z,72.40
2023-03-03T16:32:37.925Z,59.03
2023-03-03T16:35:50.608Z,60.88
2023-03-03T16:39:33.310Z,61.83
2023-03-03T16:42:35.107Z,58.72
2023-03-03T16:45:39.453Z,70.68
2023-03-03T16:49:14.811Z,63.60
2023-03-03T16:52:35.159Z,73.38
2023-03-03T16:56:00.038Z,64.47
2023-03-03T16:59:06.677Z,72.80
2023-03-03T17:02:16.662Z,68.78
2023-03-03T17:05:42.578Z,64.22
2023-03-03T17:09:01.170Z,69.47
2023-03-03T17:12:19.600Z,67.30
2023-03-03T17:15:45.859Z,65.47
2023-03-03T17:19:21.626Z,67.47
2023-03-03T17:23:02.291Z,71.05
2023-03-03T17:26:23.028Z,74.72
2023-03-03T17:30:23.090Z,76.10
2023-03-03T17:33:46.270Z,67.05
2023-03-03T17:37:00.973Z,71.43
2023-03-03T17:40:49.632Z,63.40
2023-03-03T17:44:25.038Z,73.25
2023-03-03T17:47:57.730Z,71.55
2023-03-03T17:51:36.490Z,75.07
2023-03-03T17:54:55.796Z,69.72
2023-03-03T17:58:27.723Z,74.30
2023-03-03T18:02:11.223Z,73.22
2023-03-03T18:05:27.759Z,75.32
2023-03-03T18:08:40.839Z,73.45
2023-03-03T18:12:00.229Z,83.43
2023-03-03T18:15:20.979Z,70.22
2023-03-03T18:18:57.070Z,70.47
2023-03-03T18:22:17.514Z,76.95
2023-03-03T18:25:46.520Z,74.43
2023-03-03T18:28:50.676Z,71.45
2023-03-03T18:31:57.492Z,74.53
2023-03-03T18:35:41.420Z,69.97
2023-03-03T18:38:48.714Z,79.40
2023-03-03T18:42:26.163Z,74.63
2023-03-03T18:45:28.410Z,74.43
2023-03-03T18:49:03.689Z,78.03
2023-03-03T18:52:26.896Z,75.82
2023-03-03T18:55:27.664Z,75.90
2023-03-03T18:58:43.538Z,74.28
2023-03-03T19:01:48.203Z,79.72
2023-03-03T19:04:56.067Z,75.45
2023-03-03T19:08:16.865Z,75.50
2023-03-03T19:11:49.712Z,78.15
2023-03-03T19:14:50.711Z,74.30
2023-03-03T19:17:57.803Z,82.20
2023-03-03T19:21:11.323Z,81.03
2023-03-03T19:24:36.561Z,76.95
2023-03-03T19:28:06.222Z,79.93
2023-03-03T19:31:37.355Z,77.97
2023-03-03T19:35:18.423Z,86.45
2023-03-03T19:39:01.082Z,82.25
2023-03-03T19:42:05.875Z,86.50
2023-03-03T19:45:57.810Z,81.07
2023-03-03T19:49:43.631Z,80.63
2023-03-03T19:53:09.082Z,80.30
2023-03-03T19:56:33.063Z,82.75
2023-03-03T19:59:53.033Z,83.50
2023-03-03T20:03:51.948Z,85.18
2023-03-03T20:07:24.296Z,74.80
2023-03-03T20:10:37.135Z,75.18
2023-03-03T20:13:50.799Z,90.07
2023-03-03T20:16:59.603Z,80.82
2023-03-03T20:20:39.915Z,82.40
2023-03-03T20:24:15.352Z,70.25
2023-03-03T20:27:28.547Z,84.80
2023-03-03T20:30:53.939Z,86.50
2023-03-03T20:34:19.291Z,91.30
2023-03-03T20:37:49.776Z,88.35
2023-03-03T20:41:38.668Z,85.32
2023-03-03T20:44:56.575Z,88.63
2023-03-03T20:48:23.253Z,74.25
2023-03-03T20:52:06.454Z,80.40
2023-03-03T20:55:23.211Z,83.78
2023-03-03T20:59:07.617Z,82.95
2023-03-03T21:02:25.704Z,93.68
2023-03-03T21:05:27.134Z,94.60
2023-03-03T21:08:53.590Z,95.85
2023-03-03T21:11:55.231Z,96.80
2023-03-03T21:15:11.662Z,90.03
2023-03-03T21:18:25.171Z,101.78
2023-03-03T21:21:30.413Z,94.47
2023-03-03T21:24:49.293Z,87.65
2023-03-03T21:27:50.460Z,83.60
2023-03-03T21:31:13.366Z,96.07
2023-03-03T21:34:39.563Z,99.80
2023-03-03T21:37:54.283Z,87.72
2023-03-03T21:41:02.932Z,95.25
2023-03-03T21:44:46.734Z,95.75
2023-03-03T21:47:48.653Z,113.78
2023-03-03T21:50:50.031Z,85.90
2023-03-03T21:53:51.049Z,93.07
2023-03-03T21:56:52.489Z,100.35
2023-03-03T21:59:53.614Z,94.75
2023-03-03T22:02:55.500Z,94.18
2023-03-03T22:05:56.716Z,100.80
2023-03-03T22:08:57.536Z,93.70
2023-03-03T22:11:58.307Z,101.68
2023-03-03T22:14:59.054Z,97.20
2023-03-03T22:18:00.928Z,124.28
2023-03-03T22:21:01.890Z,104.57
2023-03-03T22:24:02.910Z,94.40
2023-03-03T22:27:04.190Z,110.40
2023-03-03T22:30:06.475Z,122.30
2023-03-03T22:33:07.504Z,125.78
2023-03-03T22:36:09.188Z,114.05
2023-03-03T22:39:10.697Z,131.70
2023-03-03T22:42:11.506Z,124.60
2023-03-03T22:45:13.338Z,113.18
2023-03-03T22:48:14.481Z,113.93
2023-03-03T22:51:15.654Z,115.68
2023-03-03T22:54:16.422Z,108.03
2023-03-03T22:57:17.197Z,116.15
2023-03-03T23:00:19.250Z,119.07
2023-03-03T23:03:21.304Z,117.78
2023-03-03T23:06:22.218Z,134.40
2023-03-03T23:09:23.007Z,123.43
2023-03-03T23:12:24.207Z,126.13
2023-03-03T23:15:25.137Z,116.28
2023-03-03T23:18:27.175Z,130.70
2023-03-03T23:21:28.274Z,120.78
2023-03-03T23:24:29.102Z,116.55
2023-03-03T23:27:30.290Z,125.55
2023-03-03T23:30:31.431Z,130.05
2023-03-03T23:33:32.144Z,118.30
2023-03-03T23:36:32.986Z,134.70
2023-03-03T23:39:34.070Z,136.57
2023-03-03T23:42:35.322Z,130.40
2023-03-03T23:45:36.193Z,130.02
2023-03-03T23:48:37.431Z,111.45
2023-03-03T23:51:38.612Z,113.05
2023-03-03T23:54:39.264Z,117.85
2023-03-03T23:57:40.557Z,119.43
